sensor_id;sensor_type;location;lat;lon;timestamp;pressure;altitude;pressure_sealevel;temperature;humidity
68301;BME280;55146;47.468;18.806;2024-02-21T00:01:25;100849.09;;;6.68;93.68
68301;BME280;55146;47.468;18.806;2024-02-21T00:03:50;100840.72;;;6.81;93.86
68301;BME280;55146;47.468;18.806;2024-02-21T00:06:15;100852.59;;;7.16;92.19
68301;BME280;55146;47.468;18.806;2024-02-21T00:08:41;100841.47;;;7.29;91.08
68301;BME280;55146;47.468;18.806;2024-02-21T00:11:06;100845.62;;;7.20;90.98
68301;BME280;55146;47.468;18.806;2024-02-21T00:13:32;100842.91;;;7.32;90.95
68301;BME280;55146;47.468;18.806;2024-02-21T00:15:57;100829.78;;;7.22;91.20
68301;BME280;55146;47.468;18.806;2024-02-21T00:18:22;100833.97;;;7.37;90.59
68301;BME280;55146;47.468;18.806;2024-02-21T00:20:48;100832.22;;;7.42;89.92
68301;BME280;55146;47.468;18.806;2024-02-21T00:23:13;100823.53;;;7.45;90.20
68301;BME280;55146;47.468;18.806;2024-02-21T00:25:39;100823.97;;;7.30;90.34
68301;BME280;55146;47.468;18.806;2024-02-21T00:28:05;100822.19;;;7.36;90.68
68301;BME280;55146;47.468;18.806;2024-02-21T00:30:31;100823.87;;;7.49;90.03
68301;BME280;55146;47.468;18.806;2024-02-21T00:32:56;100817.22;;;7.45;89.92
68301;BME280;55146;47.468;18.806;2024-02-21T00:35:22;100816.63;;;7.43;89.63
68301;BME280;55146;47.468;18.806;2024-02-21T00:37:47;100817.00;;;7.46;89.49
68301;BME280;55146;47.468;18.806;2024-02-21T00:40:12;100822.69;;;7.45;89.65
68301;BME280;55146;47.468;18.806;2024-02-21T00:42:41;100815.09;;;7.47;89.67
68301;BME280;55146;47.468;18.806;2024-02-21T00:45:07;100811.62;;;7.40;89.99
68301;BME280;55146;47.468;18.806;2024-02-21T00:47:33;100812.22;;;7.42;89.98
68301;BME280;55146;47.468;18.806;2024-02-21T00:49:58;100808.81;;;7.05;91.25
68301;BME280;55146;47.468;18.806;2024-02-21T00:52:24;100802.78;;;7.14;91.64
68301;BME280;55146;47.468;18.806;2024-02-21T00:54:49;100807.47;;;6.96;91.86
68301;BME280;55146;47.468;18.806;2024-02-21T00:57:14;100806.56;;;6.72;93.72
68301;BME280;55146;47.468;18.806;2024-02-21T00:59:40;100810.50;;;6.76;93.51
68301;BME280;55146;47.468;18.806;2024-02-21T01:02:06;100808.19;;;6.91;93.14
68301;BME280;55146;47.468;18.806;2024-02-21T01:04:32;100804.38;;;6.92;93.47
68301;BME280;55146;47.468;18.806;2024-02-21T01:06:57;100806.94;;;6.75;94.12
68301;BME280;55146;47.468;18.806;2024-02-21T01:09:22;100805.38;;;6.79;94.67
68301;BME280;55146;47.468;18.806;2024-02-21T01:11:48;100799.87;;;6.68;95.43
68301;BME280;55146;47.468;18.806;2024-02-21T01:14:13;100801.78;;;6.67;95.88
68301;BME280;55146;47.468;18.806;2024-02-21T01:16:38;100803.84;;;6.72;95.98
68301;BME280;55146;47.468;18.806;2024-02-21T01:19:04;100804.81;;;6.77;95.35
68301;BME280;55146;47.468;18.806;2024-02-21T01:21:29;100806.06;;;6.63;96.00
68301;BME280;55146;47.468;18.806;2024-02-21T01:23:55;100802.16;;;6.71;96.13
68301;BME280;55146;47.468;18.806;2024-02-21T01:26:20;100806.06;;;6.63;96.21
68301;BME280;55146;47.468;18.806;2024-02-21T01:28:45;100796.56;;;6.66;96.95
68301;BME280;55146;47.468;18.806;2024-02-21T01:31:11;100797.88;;;6.75;95.32
68301;BME280;55146;47.468;18.806;2024-02-21T01:33:38;100804.50;;;6.67;95.55
68301;BME280;55146;47.468;18.806;2024-02-21T01:36:04;100800.75;;;6.50;97.22
68301;BME280;55146;47.468;18.806;2024-02-21T01:38:32;100801.50;;;6.57;96.95
68301;BME280;55146;47.468;18.806;2024-02-21T01:40:57;100796.41;;;6.61;96.52
68301;BME280;55146;47.468;18.806;2024-02-21T01:43:23;100794.13;;;6.87;95.36
68301;BME280;55146;47.468;18.806;2024-02-21T01:45:50;100796.44;;;7.02;94.20
68301;BME280;55146;47.468;18.806;2024-02-21T01:48:19;100797.53;;;7.13;93.06
68301;BME280;55146;47.468;18.806;2024-02-21T01:50:45;100791.81;;;7.03;92.30
68301;BME280;55146;47.468;18.806;2024-02-21T01:53:14;100790.78;;;7.15;91.29
68301;BME280;55146;47.468;18.806;2024-02-21T01:55:47;100795.16;;;7.16;91.19
68301;BME280;55146;47.468;18.806;2024-02-21T01:58:14;100793.97;;;7.12;91.08
68301;BME280;55146;47.468;18.806;2024-02-21T02:00:41;100788.88;;;7.16;90.99
68301;BME280;55146;47.468;18.806;2024-02-21T02:03:10;100791.84;;;7.14;90.91
68301;BME280;55146;47.468;18.806;2024-02-21T02:05:42;100784.81;;;7.18;90.86
68301;BME280;55146;47.468;18.806;2024-02-21T02:08:07;100789.31;;;7.13;91.22
68301;BME280;55146;47.468;18.806;2024-02-21T02:10:32;100781.84;;;7.20;90.78
68301;BME280;55146;47.468;18.806;2024-02-21T02:12:58;100785.87;;;7.17;90.75
68301;BME280;55146;47.468;18.806;2024-02-21T02:15:24;100778.38;;;7.13;90.95
68301;BME280;55146;47.468;18.806;2024-02-21T02:17:49;100778.09;;;6.91;91.76
68301;BME280;55146;47.468;18.806;2024-02-21T02:20:15;100787.13;;;6.62;93.30
68301;BME280;55146;47.468;18.806;2024-02-21T02:22:43;100774.88;;;6.53;94.27
68301;BME280;55146;47.468;18.806;2024-02-21T02:25:08;100774.53;;;6.61;93.95
68301;BME280;55146;47.468;18.806;2024-02-21T02:27:41;100770.56;;;6.45;95.50
68301;BME280;55146;47.468;18.806;2024-02-21T02:30:09;100768.38;;;6.65;94.44
68301;BME280;55146;47.468;18.806;2024-02-21T02:32:35;100765.69;;;6.77;94.52
68301;BME280;55146;47.468;18.806;2024-02-21T02:35:01;100774.97;;;6.76;94.29
68301;BME280;55146;47.468;18.806;2024-02-21T02:37:26;100767.38;;;6.78;93.83
68301;BME280;55146;47.468;18.806;2024-02-21T02:39:51;100771.91;;;6.84;93.85
68301;BME280;55146;47.468;18.806;2024-02-21T02:42:17;100774.88;;;6.82;93.41
68301;BME280;55146;47.468;18.806;2024-02-21T02:44:42;100773.81;;;6.95;92.86
68301;BME280;55146;47.468;18.806;2024-02-21T02:47:08;100770.88;;;6.97;92.75
68301;BME280;55146;47.468;18.806;2024-02-21T02:49:34;100774.97;;;6.76;92.87
68301;BME280;55146;47.468;18.806;2024-02-21T02:51:59;100775.22;;;6.86;92.80
68301;BME280;55146;47.468;18.806;2024-02-21T02:54:25;100771.06;;;6.83;92.71
68301;BME280;55146;47.468;18.806;2024-02-21T02:56:50;100766.53;;;6.77;92.78
68301;BME280;55146;47.468;18.806;2024-02-21T02:59:16;100772.75;;;6.36;95.40
68301;BME280;55146;47.468;18.806;2024-02-21T03:01:41;100771.41;;;6.45;94.91
68301;BME280;55146;47.468;18.806;2024-02-21T03:04:06;100770.66;;;6.20;95.76
68301;BME280;55146;47.468;18.806;2024-02-21T03:06:32;100775.50;;;6.18;95.24
68301;BME280;55146;47.468;18.806;2024-02-21T03:08:58;100776.19;;;6.32;94.83
68301;BME280;55146;47.468;18.806;2024-02-21T03:11:25;100774.59;;;6.24;95.52
68301;BME280;55146;47.468;18.806;2024-02-21T03:13:55;100775.44;;;6.25;95.49
68301;BME280;55146;47.468;18.806;2024-02-21T03:16:21;100782.19;;;6.40;94.92
68301;BME280;55146;47.468;18.806;2024-02-21T03:18:46;100782.87;;;6.18;95.43
68301;BME280;55146;47.468;18.806;2024-02-21T03:21:12;100783.56;;;6.13;96.54
68301;BME280;55146;47.468;18.806;2024-02-21T03:23:37;100784.81;;;6.17;96.22
68301;BME280;55146;47.468;18.806;2024-02-21T03:26:03;100782.72;;;6.13;96.21
68301;BME280;55146;47.468;18.806;2024-02-21T03:28:28;100777.81;;;6.03;96.42
68301;BME280;55146;47.468;18.806;2024-02-21T03:30:53;100783.28;;;6.03;96.70
68301;BME280;55146;47.468;18.806;2024-02-21T03:33:19;100773.69;;;5.94;96.51
68301;BME280;55146;47.468;18.806;2024-02-21T03:35:46;100779.56;;;5.97;96.74
68301;BME280;55146;47.468;18.806;2024-02-21T03:38:11;100790.22;;;5.99;96.52
68301;BME280;55146;47.468;18.806;2024-02-21T03:40:36;100786.44;;;6.00;96.70
68301;BME280;55146;47.468;18.806;2024-02-21T03:43:02;100789.72;;;5.90;96.16
68301;BME280;55146;47.468;18.806;2024-02-21T03:45:27;100794.75;;;5.87;96.12
68301;BME280;55146;47.468;18.806;2024-02-21T03:47:52;100794.81;;;5.80;96.18
68301;BME280;55146;47.468;18.806;2024-02-21T03:50:18;100794.22;;;5.78;95.98
68301;BME280;55146;47.468;18.806;2024-02-21T03:52:43;100803.25;;;5.79;95.98
68301;BME280;55146;47.468;18.806;2024-02-21T03:55:09;100810.81;;;5.77;95.34
68301;BME280;55146;47.468;18.806;2024-02-21T03:57:34;100810.59;;;5.78;94.43
68301;BME280;55146;47.468;18.806;2024-02-21T03:59:59;100809.28;;;5.87;93.45
68301;BME280;55146;47.468;18.806;2024-02-21T04:02:25;100805.72;;;5.80;93.89
68301;BME280;55146;47.468;18.806;2024-02-21T04:04:50;100815.28;;;5.71;93.66
68301;BME280;55146;47.468;18.806;2024-02-21T04:07:15;100813.41;;;5.72;93.85
68301;BME280;55146;47.468;18.806;2024-02-21T04:09:41;100813.91;;;5.62;93.99
68301;BME280;55146;47.468;18.806;2024-02-21T04:12:08;100806.59;;;5.56;93.79
68301;BME280;55146;47.468;18.806;2024-02-21T04:14:33;100810.84;;;5.52;94.00
68301;BME280;55146;47.468;18.806;2024-02-21T04:16:59;100810.47;;;5.48;93.78
68301;BME280;55146;47.468;18.806;2024-02-21T04:19:25;100807.34;;;5.45;93.64
68301;BME280;55146;47.468;18.806;2024-02-21T04:21:50;100815.53;;;5.45;93.31
68301;BME280;55146;47.468;18.806;2024-02-21T04:24:15;100811.06;;;5.50;93.29
68301;BME280;55146;47.468;18.806;2024-02-21T04:26:41;100805.59;;;5.50;92.62
68301;BME280;55146;47.468;18.806;2024-02-21T04:29:06;100806.06;;;5.47;92.41
68301;BME280;55146;47.468;18.806;2024-02-21T04:31:32;100808.41;;;5.44;92.58
68301;BME280;55146;47.468;18.806;2024-02-21T04:33:58;100809.91;;;5.15;93.80
68301;BME280;55146;47.468;18.806;2024-02-21T04:36:23;100803.81;;;5.13;94.37
68301;BME280;55146;47.468;18.806;2024-02-21T04:38:49;100804.50;;;5.08;94.43
68301;BME280;55146;47.468;18.806;2024-02-21T04:41:15;100803.06;;;5.06;94.78
68301;BME280;55146;47.468;18.806;2024-02-21T04:43:41;100802.47;;;4.97;94.91
68301;BME280;55146;47.468;18.806;2024-02-21T04:46:06;100798.09;;;4.96;95.10
68301;BME280;55146;47.468;18.806;2024-02-21T04:48:31;100802.28;;;4.99;95.23
68301;BME280;55146;47.468;18.806;2024-02-21T04:50:57;100799.53;;;4.99;95.29
68301;BME280;55146;47.468;18.806;2024-02-21T04:53:22;100798.53;;;4.93;95.45
68301;BME280;55146;47.468;18.806;2024-02-21T04:55:48;100790.41;;;4.86;95.96
68301;BME280;55146;47.468;18.806;2024-02-21T04:58:13;100792.13;;;4.81;95.98
68301;BME280;55146;47.468;18.806;2024-02-21T05:00:38;100795.22;;;4.84;95.66
68301;BME280;55146;47.468;18.806;2024-02-21T05:03:04;100803.03;;;4.81;95.25
68301;BME280;55146;47.468;18.806;2024-02-21T05:05:29;100792.50;;;4.84;94.38
68301;BME280;55146;47.468;18.806;2024-02-21T05:07:55;100796.72;;;4.80;94.25
68301;BME280;55146;47.468;18.806;2024-02-21T05:10:20;100793.00;;;4.75;94.34
68301;BME280;55146;47.468;18.806;2024-02-21T05:12:46;100790.91;;;4.70;93.88
68301;BME280;55146;47.468;18.806;2024-02-21T05:15:11;100794.09;;;4.67;93.63
68301;BME280;55146;47.468;18.806;2024-02-21T05:17:36;100790.09;;;4.63;93.05
68301;BME280;55146;47.468;18.806;2024-02-21T05:20:02;100791.44;;;4.54;93.57
68301;BME280;55146;47.468;18.806;2024-02-21T05:22:28;100791.47;;;4.47;93.73
68301;BME280;55146;47.468;18.806;2024-02-21T05:24:53;100790.03;;;4.38;94.24
68301;BME280;55146;47.468;18.806;2024-02-21T05:27:19;100797.56;;;4.43;94.71
68301;BME280;55146;47.468;18.806;2024-02-21T05:29:44;100796.13;;;4.34;94.18
68301;BME280;55146;47.468;18.806;2024-02-21T05:32:09;100798.66;;;4.35;94.65
68301;BME280;55146;47.468;18.806;2024-02-21T05:34:35;100801.44;;;4.22;94.74
68301;BME280;55146;47.468;18.806;2024-02-21T05:37:00;100799.22;;;3.99;96.61
68301;BME280;55146;47.468;18.806;2024-02-21T05:39:26;100795.00;;;4.03;97.16
68301;BME280;55146;47.468;18.806;2024-02-21T05:41:51;100800.66;;;4.02;97.20
68301;BME280;55146;47.468;18.806;2024-02-21T05:44:17;100798.78;;;4.02;97.12
68301;BME280;55146;47.468;18.806;2024-02-21T05:46:43;100805.25;;;4.01;97.49
68301;BME280;55146;47.468;18.806;2024-02-21T05:49:08;100805.91;;;3.97;96.68
68301;BME280;55146;47.468;18.806;2024-02-21T05:51:34;100791.47;;;3.96;97.16
68301;BME280;55146;47.468;18.806;2024-02-21T05:54:00;100790.63;;;3.96;96.14
68301;BME280;55146;47.468;18.806;2024-02-21T05:56:25;100787.53;;;3.86;96.94
68301;BME280;55146;47.468;18.806;2024-02-21T05:58:51;100785.66;;;3.80;98.21
68301;BME280;55146;47.468;18.806;2024-02-21T06:01:16;100790.25;;;3.79;99.25
68301;BME280;55146;47.468;18.806;2024-02-21T06:03:43;100791.31;;;3.78;100.00
68301;BME280;55146;47.468;18.806;2024-02-21T06:06:08;100794.44;;;3.88;100.00
68301;BME280;55146;47.468;18.806;2024-02-21T06:08:33;100804.03;;;3.91;100.00
68301;BME280;55146;47.468;18.806;2024-02-21T06:10:59;100806.34;;;3.94;100.00
68301;BME280;55146;47.468;18.806;2024-02-21T06:13:24;100812.41;;;3.96;100.00
68301;BME280;55146;47.468;18.806;2024-02-21T06:15:50;100812.34;;;4.16;100.00
68301;BME280;55146;47.468;18.806;2024-02-21T06:18:20;100818.84;;;4.59;99.84
68301;BME280;55146;47.468;18.806;2024-02-21T06:20:45;100807.38;;;4.82;97.35
68301;BME280;55146;47.468;18.806;2024-02-21T06:23:12;100802.69;;;4.96;96.77
68301;BME280;55146;47.468;18.806;2024-02-21T06:25:37;100805.50;;;5.14;96.56
68301;BME280;55146;47.468;18.806;2024-02-21T06:28:03;100808.91;;;5.34;95.33
68301;BME280;55146;47.468;18.806;2024-02-21T06:30:28;100821.28;;;5.37;95.17
68301;BME280;55146;47.468;18.806;2024-02-21T06:32:54;100828.50;;;5.49;94.10
68301;BME280;55146;47.468;18.806;2024-02-21T06:35:24;100824.72;;;5.50;94.29
68301;BME280;55146;47.468;18.806;2024-02-21T06:37:50;100832.56;;;5.65;94.40
68301;BME280;55146;47.468;18.806;2024-02-21T06:40:23;100833.13;;;5.74;93.98
68301;BME280;55146;47.468;18.806;2024-02-21T06:42:49;100838.19;;;5.95;92.95
68301;BME280;55146;47.468;18.806;2024-02-21T06:45:15;100840.56;;;6.09;92.14
68301;BME280;55146;47.468;18.806;2024-02-21T06:47:41;100839.50;;;6.29;92.00
68301;BME280;55146;47.468;18.806;2024-02-21T06:50:07;100849.59;;;6.46;91.22
68301;BME280;55146;47.468;18.806;2024-02-21T06:52:34;100851.69;;;6.63;88.87
68301;BME280;55146;47.468;18.806;2024-02-21T06:54:59;100844.50;;;6.80;90.13
68301;BME280;55146;47.468;18.806;2024-02-21T06:57:24;100851.41;;;7.12;88.98
68301;BME280;55146;47.468;18.806;2024-02-21T06:59:50;100855.78;;;7.43;87.93
68301;BME280;55146;47.468;18.806;2024-02-21T07:02:15;100840.59;;;7.70;86.44
68301;BME280;55146;47.468;18.806;2024-02-21T07:04:40;100855.13;;;7.94;83.88
68301;BME280;55146;47.468;18.806;2024-02-21T07:07:06;100851.75;;;8.16;83.60
68301;BME280;55146;47.468;18.806;2024-02-21T07:09:31;100849.50;;;8.36;82.68
68301;BME280;55146;47.468;18.806;2024-02-21T07:12:00;100851.47;;;8.52;81.33
68301;BME280;55146;47.468;18.806;2024-02-21T07:14:28;100856.56;;;8.72;80.53
68301;BME280;55146;47.468;18.806;2024-02-21T07:16:53;100849.56;;;8.92;78.31
68301;BME280;55146;47.468;18.806;2024-02-21T07:19:19;100849.84;;;9.08;79.26
68301;BME280;55146;47.468;18.806;2024-02-21T07:21:44;100847.16;;;9.24;78.17
68301;BME280;55146;47.468;18.806;2024-02-21T07:24:10;100843.34;;;9.42;78.32
68301;BME280;55146;47.468;18.806;2024-02-21T07:26:35;100851.66;;;9.64;77.18
68301;BME280;55146;47.468;18.806;2024-02-21T07:29:00;100849.25;;;9.84;76.32
68301;BME280;55146;47.468;18.806;2024-02-21T07:31:26;100848.50;;;10.05;75.80
68301;BME280;55146;47.468;18.806;2024-02-21T07:33:51;100848.28;;;10.29;75.22
68301;BME280;55146;47.468;18.806;2024-02-21T07:36:28;100846.31;;;10.46;74.23
68301;BME280;55146;47.468;18.806;2024-02-21T07:38:53;100847.03;;;10.58;73.74
68301;BME280;55146;47.468;18.806;2024-02-21T07:41:19;100855.47;;;10.73;73.11
68301;BME280;55146;47.468;18.806;2024-02-21T07:43:44;100851.06;;;10.72;70.80
68301;BME280;55146;47.468;18.806;2024-02-21T07:46:10;100852.16;;;10.71;71.17
68301;BME280;55146;47.468;18.806;2024-02-21T07:48:35;100852.72;;;10.51;70.38
68301;BME280;55146;47.468;18.806;2024-02-21T07:51:00;100858.56;;;10.17;72.88
68301;BME280;55146;47.468;18.806;2024-02-21T07:53:26;100857.37;;;10.29;72.74
68301;BME280;55146;47.468;18.806;2024-02-21T07:55:51;100856.38;;;10.02;72.49
68301;BME280;55146;47.468;18.806;2024-02-21T07:58:16;100854.31;;;9.75;74.68
68301;BME280;55146;47.468;18.806;2024-02-21T08:00:42;100851.56;;;9.75;76.11
68301;BME280;55146;47.468;18.806;2024-02-21T08:03:07;100841.69;;;9.74;76.39
68301;BME280;55146;47.468;18.806;2024-02-21T08:05:34;100845.00;;;9.77;76.47
68301;BME280;55146;47.468;18.806;2024-02-21T08:08:00;100835.84;;;9.54;77.51
68301;BME280;55146;47.468;18.806;2024-02-21T08:10:25;100838.66;;;9.26;78.39
68301;BME280;55146;47.468;18.806;2024-02-21T08:12:50;100826.47;;;9.50;79.62
68301;BME280;55146;47.468;18.806;2024-02-21T08:15:16;100832.53;;;9.86;79.68
68301;BME280;55146;47.468;18.806;2024-02-21T08:17:41;100825.78;;;10.32;77.53
68301;BME280;55146;47.468;18.806;2024-02-21T08:20:07;100828.94;;;10.40;75.11
68301;BME280;55146;47.468;18.806;2024-02-21T08:22:32;100830.81;;;10.01;75.29
68301;BME280;55146;47.468;18.806;2024-02-21T08:24:58;100827.47;;;9.61;77.50
68301;BME280;55146;47.468;18.806;2024-02-21T08:27:23;100827.78;;;9.48;78.26
68301;BME280;55146;47.468;18.806;2024-02-21T08:29:49;100834.34;;;9.47;78.70
68301;BME280;55146;47.468;18.806;2024-02-21T08:32:14;100826.44;;;9.33;78.37
68301;BME280;55146;47.468;18.806;2024-02-21T08:34:39;100832.59;;;9.24;80.77
68301;BME280;55146;47.468;18.806;2024-02-21T08:37:05;100832.69;;;9.46;80.91
68301;BME280;55146;47.468;18.806;2024-02-21T08:39:30;100836.47;;;9.56;79.78
68301;BME280;55146;47.468;18.806;2024-02-21T08:41:56;100836.09;;;9.86;80.42
68301;BME280;55146;47.468;18.806;2024-02-21T08:44:23;100835.06;;;10.09;79.19
68301;BME280;55146;47.468;18.806;2024-02-21T08:46:51;100830.63;;;10.25;77.21
68301;BME280;55146;47.468;18.806;2024-02-21T08:49:16;100827.97;;;10.51;77.58
68301;BME280;55146;47.468;18.806;2024-02-21T08:51:42;100823.69;;;10.61;74.74
68301;BME280;55146;47.468;18.806;2024-02-21T08:54:08;100814.78;;;10.53;74.41
68301;BME280;55146;47.468;18.806;2024-02-21T08:56:33;100824.38;;;10.73;74.35
68301;BME280;55146;47.468;18.806;2024-02-21T08:59:00;100824.53;;;10.61;72.44
68301;BME280;55146;47.468;18.806;2024-02-21T09:01:26;100818.75;;;10.63;74.88
68301;BME280;55146;47.468;18.806;2024-02-21T09:03:51;100820.41;;;10.64;71.99
68301;BME280;55146;47.468;18.806;2024-02-21T09:06:18;100817.00;;;10.57;72.56
68301;BME280;55146;47.468;18.806;2024-02-21T09:08:45;100817.25;;;10.77;72.57
68301;BME280;55146;47.468;18.806;2024-02-21T09:11:10;100813.16;;;11.06;72.00
68301;BME280;55146;47.468;18.806;2024-02-21T09:13:35;100811.28;;;11.39;69.37
68301;BME280;55146;47.468;18.806;2024-02-21T09:16:01;100805.56;;;11.77;69.72
68301;BME280;55146;47.468;18.806;2024-02-21T09:18:26;100798.84;;;12.05;67.51
68301;BME280;55146;47.468;18.806;2024-02-21T09:20:51;100808.06;;;12.26;67.35
68301;BME280;55146;47.468;18.806;2024-02-21T09:23:17;100805.81;;;12.23;65.59
68301;BME280;55146;47.468;18.806;2024-02-21T09:25:44;100805.38;;;12.41;66.36
68301;BME280;55146;47.468;18.806;2024-02-21T09:28:11;100815.50;;;12.25;65.14
68301;BME280;55146;47.468;18.806;2024-02-21T09:30:38;100799.97;;;12.09;65.60
68301;BME280;55146;47.468;18.806;2024-02-21T09:33:03;100809.53;;;12.48;63.71
68301;BME280;55146;47.468;18.806;2024-02-21T09:35:30;100800.75;;;12.56;64.23
68301;BME280;55146;47.468;18.806;2024-02-21T09:37:56;100805.84;;;13.00;63.86
68301;BME280;55146;47.468;18.806;2024-02-21T09:40:21;100805.94;;;13.46;61.83
68301;BME280;55146;47.468;18.806;2024-02-21T09:42:48;100807.34;;;13.63;60.35
68301;BME280;55146;47.468;18.806;2024-02-21T09:45:25;100803.72;;;13.73;60.45
68301;BME280;55146;47.468;18.806;2024-02-21T09:50:36;100810.88;;;13.84;60.45
68301;BME280;55146;47.468;18.806;2024-02-21T09:53:04;100806.75;;;13.71;59.63
68301;BME280;55146;47.468;18.806;2024-02-21T09:55:33;100803.72;;;13.38;60.16
68301;BME280;55146;47.468;18.806;2024-02-21T09:58:01;100799.19;;;12.91;60.38
68301;BME280;55146;47.468;18.806;2024-02-21T10:00:26;100795.38;;;13.02;63.10
68301;BME280;55146;47.468;18.806;2024-02-21T10:02:53;100800.41;;;13.30;61.62
68301;BME280;55146;47.468;18.806;2024-02-21T10:05:18;100802.59;;;13.59;59.97
68301;BME280;55146;47.468;18.806;2024-02-21T10:07:44;100802.06;;;13.82;58.87
68301;BME280;55146;47.468;18.806;2024-02-21T10:10:10;100800.66;;;13.80;57.36
68301;BME280;55146;47.468;18.806;2024-02-21T10:12:35;100795.44;;;13.48;57.65
68301;BME280;55146;47.468;18.806;2024-02-21T10:17:27;100791.28;;;13.50;58.67
68301;BME280;55146;47.468;18.806;2024-02-21T10:19:52;100789.59;;;13.90;56.32
68301;BME280;55146;47.468;18.806;2024-02-21T10:22:17;100790.41;;;14.00;56.45
68301;BME280;55146;47.468;18.806;2024-02-21T10:24:43;100784.62;;;13.66;54.94
68301;BME280;55146;47.468;18.806;2024-02-21T10:27:09;100789.63;;;13.74;56.31
68301;BME280;55146;47.468;18.806;2024-02-21T10:29:36;100791.28;;;13.60;55.71
68301;BME280;55146;47.468;18.806;2024-02-21T10:32:12;100773.88;;;13.19;55.75
68301;BME280;55146;47.468;18.806;2024-02-21T10:34:39;100771.75;;;12.54;58.89
68301;BME280;55146;47.468;18.806;2024-02-21T10:37:06;100771.72;;;12.44;60.57
68301;BME280;55146;47.468;18.806;2024-02-21T10:39:33;100761.34;;;12.86;58.79
68301;BME280;55146;47.468;18.806;2024-02-21T10:42:01;100759.25;;;13.39;60.62
68301;BME280;55146;47.468;18.806;2024-02-21T10:44:30;100758.63;;;13.83;58.89
68301;BME280;55146;47.468;18.806;2024-02-21T10:46:56;100761.12;;;13.79;56.57
68301;BME280;55146;47.468;18.806;2024-02-21T10:49:23;100752.31;;;13.57;58.46
68301;BME280;55146;47.468;18.806;2024-02-21T10:54:45;100744.84;;;13.52;57.80
68301;BME280;55146;47.468;18.806;2024-02-21T10:57:12;100734.66;;;13.38;57.31
68301;BME280;55146;47.468;18.806;2024-02-21T10:59:39;100736.78;;;12.85;58.70
68301;BME280;55146;47.468;18.806;2024-02-21T11:02:06;100732.34;;;12.84;58.60
68301;BME280;55146;47.468;18.806;2024-02-21T11:04:32;100731.69;;;12.36;59.28
68301;BME280;55146;47.468;18.806;2024-02-21T11:07:03;100722.19;;;12.07;60.48
68301;BME280;55146;47.468;18.806;2024-02-21T11:09:32;100720.72;;;11.89;61.74
68301;BME280;55146;47.468;18.806;2024-02-21T11:12:01;100714.03;;;12.37;64.08
68301;BME280;55146;47.468;18.806;2024-02-21T11:14:27;100709.19;;;13.10;61.74
68301;BME280;55146;47.468;18.806;2024-02-21T11:16:53;100706.69;;;13.59;57.86
68301;BME280;55146;47.468;18.806;2024-02-21T11:21:45;100698.06;;;14.50;56.58
68301;BME280;55146;47.468;18.806;2024-02-21T11:24:10;100698.63;;;14.52;54.73
68301;BME280;55146;47.468;18.806;2024-02-21T11:26:37;100697.38;;;14.14;54.14
68301;BME280;55146;47.468;18.806;2024-02-21T11:29:03;100692.53;;;13.86;55.21
68301;BME280;55146;47.468;18.806;2024-02-21T11:31:44;100687.56;;;13.88;57.27
68301;BME280;55146;47.468;18.806;2024-02-21T11:34:11;100680.69;;;14.35;56.65
68301;BME280;55146;47.468;18.806;2024-02-21T11:36:46;100682.91;;;14.43;54.92
68301;BME280;55146;47.468;18.806;2024-02-21T11:39:17;100681.75;;;14.49;55.05
68301;BME280;55146;47.468;18.806;2024-02-21T11:41:42;100669.91;;;14.38;53.79
68301;BME280;55146;47.468;18.806;2024-02-21T11:44:08;100670.63;;;14.00;53.08
68301;BME280;55146;47.468;18.806;2024-02-21T11:46:33;100655.47;;;13.77;54.48
68301;BME280;55146;47.468;18.806;2024-02-21T11:48:58;100659.66;;;13.64;55.46
68301;BME280;55146;47.468;18.806;2024-02-21T11:51:27;100652.22;;;13.60;54.36
68301;BME280;55146;47.468;18.806;2024-02-21T11:53:53;100657.19;;;13.68;54.98
68301;BME280;55146;47.468;18.806;2024-02-21T11:56:19;100651.94;;;13.66;52.67
68301;BME280;55146;47.468;18.806;2024-02-21T11:58:49;100658.88;;;13.54;53.82
68301;BME280;55146;47.468;18.806;2024-02-21T12:01:15;100659.44;;;13.41;53.26
68301;BME280;55146;47.468;18.806;2024-02-21T12:03:40;100651.75;;;13.07;54.46
68301;BME280;55146;47.468;18.806;2024-02-21T12:06:07;100652.31;;;13.14;55.14
68301;BME280;55146;47.468;18.806;2024-02-21T12:08:42;100648.44;;;13.00;54.08
68301;BME280;55146;47.468;18.806;2024-02-21T12:11:23;100644.00;;;12.59;56.21
68301;BME280;55146;47.468;18.806;2024-02-21T12:14:01;100648.44;;;12.65;56.63
68301;BME280;55146;47.468;18.806;2024-02-21T12:16:28;100649.53;;;12.64;57.54
68301;BME280;55146;47.468;18.806;2024-02-21T12:18:57;100650.53;;;12.22;58.02
68301;BME280;55146;47.468;18.806;2024-02-21T12:21:29;100640.06;;;12.29;57.65
68301;BME280;55146;47.468;18.806;2024-02-21T12:23:55;100640.37;;;12.38;58.61
68301;BME280;55146;47.468;18.806;2024-02-21T12:26:21;100646.78;;;11.76;59.49
68301;BME280;55146;47.468;18.806;2024-02-21T12:28:46;100646.03;;;11.91;60.21
68301;BME280;55146;47.468;18.806;2024-02-21T12:31:12;100644.75;;;11.61;59.90
68301;BME280;55146;47.468;18.806;2024-02-21T12:33:38;100641.94;;;11.51;61.73
68301;BME280;55146;47.468;18.806;2024-02-21T12:36:03;100645.06;;;11.70;60.10
68301;BME280;55146;47.468;18.806;2024-02-21T12:38:29;100645.88;;;11.65;59.23
68301;BME280;55146;47.468;18.806;2024-02-21T12:40:54;100642.62;;;11.73;61.05
68301;BME280;55146;47.468;18.806;2024-02-21T12:43:20;100631.78;;;11.62;59.86
68301;BME280;55146;47.468;18.806;2024-02-21T12:45:47;100633.56;;;11.78;59.16
68301;BME280;55146;47.468;18.806;2024-02-21T12:48:13;100638.72;;;11.64;57.67
68301;BME280;55146;47.468;18.806;2024-02-21T12:50:40;100634.94;;;11.75;58.55